createdAt,value
2023-04-19T00:02:21.123Z,97819.00
2023-04-19T00:07:22.016Z,97822.00
2023-04-19T00:12:22.884Z,97820.00
2023-04-19T00:17:23.745Z,97820.00
2023-04-19T00:22:25.423Z,97818.00
2023-04-19T00:27:26.190Z,97814.00
2023-04-19T00:32:27.326Z,97814.00
2023-04-19T00:37:28.148Z,97810.00
2023-04-19T00:42:29.197Z,97808.00
2023-04-19T00:47:30.075Z,97801.00
2023-04-19T00:52:33.427Z,97806.00
2023-04-19T00:57:34.495Z,97806.00
2023-04-19T01:02:35.867Z,97802.00
2023-04-19T01:07:36.842Z,97805.00
2023-04-19T01:12:37.673Z,97796.00
2023-04-19T01:17:38.827Z,97782.00
2023-04-19T01:22:39.862Z,97779.00
2023-04-19T01:27:40.627Z,97778.00
2023-04-19T01:32:41.879Z,97773.00
2023-04-19T01:37:42.648Z,97770.00
2023-04-19T01:42:44.145Z,97757.00
2023-04-19T01:47:45.052Z,97753.00
2023-04-19T01:52:45.998Z,97750.00
2023-04-19T01:57:46.782Z,97752.00
2023-04-19T02:02:47.910Z,97741.00
2023-04-19T02:07:49.737Z,97741.00
2023-04-19T02:12:50.493Z,97738.00
2023-04-19T02:17:51.333Z,97732.00
2023-04-19T02:22:53.162Z,97723.00
2023-04-19T02:27:54.099Z,97727.00
2023-04-19T02:32:55.532Z,97720.00
2023-04-19T02:37:56.678Z,97727.00
2023-04-19T02:43:00.786Z,97726.00
2023-04-19T02:48:01.740Z,97720.00
2023-04-19T02:53:02.782Z,97718.00
2023-04-19T02:58:04.804Z,97719.00
2023-04-19T03:03:08.984Z,97712.00
2023-04-19T03:08:10.356Z,97710.00
2023-04-19T03:13:11.431Z,97713.00
2023-04-19T03:18:12.273Z,97707.00
2023-04-19T03:23:15.632Z,97694.00
2023-04-19T03:28:16.924Z,97704.00
2023-04-19T03:33:44.486Z,97699.00
2023-04-19T03:38:46.282Z,97702.00
2023-04-19T03:43:52.038Z,97687.00
2023-04-19T03:48:54.071Z,97679.00
2023-04-19T03:53:56.356Z,97679.00
2023-04-19T03:58:57.500Z,97666.00
2023-04-19T04:03:58.585Z,97671.00
2023-04-19T04:09:00.255Z,97683.00
2023-04-19T04:14:01.565Z,97686.00
2023-04-19T04:19:05.315Z,97680.00
2023-04-19T04:24:07.665Z,97683.00
2023-04-19T04:29:14.341Z,97676.00
2023-04-19T04:34:15.526Z,97687.00
2023-04-19T04:39:22.870Z,97679.00
2023-04-19T04:44:23.879Z,97680.00
2023-04-19T04:49:26.015Z,97681.00
2023-04-19T04:54:27.048Z,97685.00
2023-04-19T04:59:29.183Z,97691.00
2023-04-19T05:04:31.683Z,97684.00
2023-04-19T05:09:32.561Z,97687.00
2023-04-19T05:14:33.702Z,97678.00
2023-04-19T05:19:35.108Z,97688.00
2023-04-19T05:24:41.818Z,97682.00
2023-04-19T05:29:43.822Z,97680.00
2023-04-19T05:34:45.051Z,97680.00
2023-04-19T05:39:47.813Z,97671.00
2023-04-19T05:44:48.647Z,97668.00
2023-04-19T05:49:50.546Z,97678.00
2023-04-19T05:55:07.541Z,97673.00
2023-04-19T06:00:09.748Z,97656.00
2023-04-19T06:05:29.968Z,97660.00
2023-04-19T06:10:40.256Z,97668.00
2023-04-19T06:15:50.276Z,97669.00
2023-04-19T06:20:53.105Z,97678.00
2023-04-19T06:25:53.964Z,97674.00
2023-04-19T06:30:54.784Z,97674.00
2023-04-19T06:35:55.535Z,97671.00
2023-04-19T06:40:56.420Z,97670.00
2023-04-19T06:46:00.880Z,97673.00
2023-04-19T06:51:01.812Z,97673.00
2023-04-19T06:56:04.015Z,97677.00
2023-04-19T07:01:05.097Z,97681.00
2023-04-19T07:06:06.324Z,97680.00
2023-04-19T07:11:07.121Z,97684.00
2023-04-19T07:16:07.924Z,97678.00
2023-04-19T07:21:09.212Z,97669.00
2023-04-19T07:26:10.198Z,97677.00
2023-04-19T07:31:16.048Z,97677.00
2023-04-19T07:36:16.864Z,97675.00
2023-04-19T07:41:17.674Z,97681.00
2023-04-19T07:46:18.615Z,97682.00
2023-04-19T07:51:19.883Z,97682.00
2023-04-19T07:56:22.195Z,97679.00
2023-04-19T08:01:23.045Z,97675.00
2023-04-19T08:06:23.923Z,97674.00
2023-04-19T08:11:24.687Z,97671.00
2023-04-19T08:16:56.289Z,97664.00
2023-04-19T08:22:12.228Z,97670.00
2023-04-19T08:27:13.086Z,97670.00
2023-04-19T08:32:13.952Z,97665.00
2023-04-19T08:37:15.211Z,97661.00
2023-04-19T08:42:28.627Z,97652.00
2023-04-19T08:47:48.533Z,97647.00
2023-04-19T08:53:12.055Z,97647.00
2023-04-19T08:58:36.558Z,97649.00
2023-04-19T09:03:56.111Z,97641.00
2023-04-19T09:14:24.701Z,97643.00
2023-04-19T09:19:25.745Z,97632.00
2023-04-19T09:25:18.621Z,97632.00
2023-04-19T09:30:43.469Z,97630.00
2023-04-19T09:35:48.862Z,97633.00
2023-04-19T09:40:50.092Z,97624.00
2023-04-19T09:45:50.893Z,97633.00
2023-04-19T09:51:04.632Z,97626.00
2023-04-19T09:56:11.971Z,97611.00
2023-04-19T10:01:16.285Z,97615.00
2023-04-19T10:11:26.380Z,97601.00
2023-04-19T10:16:29.809Z,97604.00
2023-04-19T10:21:31.952Z,97603.00
2023-04-19T10:27:07.211Z,97605.00
2023-04-19T10:32:12.835Z,97604.00
2023-04-19T10:37:13.977Z,97594.00
2023-04-19T10:42:14.792Z,97589.00
2023-04-19T10:47:40.786Z,97580.00
2023-04-19T10:52:41.646Z,97579.00
2023-04-19T10:58:05.593Z,97575.00
2023-04-19T11:10:15.251Z,97565.00
2023-04-19T11:15:16.036Z,97558.00
2023-04-19T11:20:16.823Z,97538.00
2023-04-19T11:25:20.004Z,97533.00
2023-04-19T11:30:27.775Z,97525.00
2023-04-19T11:35:29.813Z,97512.00
2023-04-19T11:40:31.321Z,97515.00
2023-04-19T11:45:38.604Z,97513.00
2023-04-19T11:50:43.094Z,97496.00
2023-04-19T11:55:50.313Z,97497.00
2023-04-19T12:00:51.363Z,97493.00
2023-04-19T12:05:56.623Z,97491.00
2023-04-19T12:10:59.247Z,97490.00
2023-04-19T12:16:00.704Z,97491.00
2023-04-19T12:21:03.288Z,97489.00
2023-04-19T12:26:07.161Z,97493.00
2023-04-19T12:31:07.961Z,97470.00
2023-04-19T12:36:09.303Z,97473.00
2023-04-19T12:41:10.395Z,97464.00
2023-04-19T12:46:11.204Z,97480.00
2023-04-19T12:51:12.020Z,97466.00
2023-04-19T12:56:14.911Z,97472.00
2023-04-19T13:01:16.292Z,97463.00
2023-04-19T13:06:17.322Z,97458.00
2023-04-19T13:11:22.227Z,97458.00
2023-04-19T13:16:23.271Z,97460.00
2023-04-19T13:21:24.236Z,97448.00
2023-04-19T13:26:25.741Z,97437.00
2023-04-19T13:31:26.845Z,97447.00
2023-04-19T13:36:27.728Z,97439.00
2023-04-19T13:41:28.897Z,97423.00
2023-04-19T13:46:30.001Z,97418.00
2023-04-19T13:51:42.500Z,97407.00
2023-04-19T13:56:52.322Z,97408.00
2023-04-19T14:01:55.007Z,97401.00
2023-04-19T14:06:55.850Z,97401.00
2023-04-19T14:11:56.979Z,97399.00
2023-04-19T14:16:57.751Z,97386.00
2023-04-19T14:21:59.054Z,97381.00
2023-04-19T14:27:10.536Z,97377.00
2023-04-19T14:32:24.935Z,97370.00
2023-04-19T14:37:27.481Z,97362.00
2023-04-19T14:42:28.289Z,97365.00
2023-04-19T14:47:29.140Z,97363.00
2023-04-19T14:52:30.674Z,97353.00
2023-04-19T14:57:31.467Z,97362.00
2023-04-19T15:02:32.285Z,97362.00
2023-04-19T15:07:33.270Z,97355.00
2023-04-19T15:12:34.004Z,97349.00
2023-04-19T15:17:35.284Z,97350.00
2023-04-19T15:22:36.158Z,97356.00
2023-04-19T15:27:37.024Z,97343.00
2023-04-19T15:32:37.908Z,97345.00
2023-04-19T15:37:40.411Z,97332.00
2023-04-19T15:42:41.260Z,97347.00
2023-04-19T15:47:42.100Z,97343.00
2023-04-19T15:52:42.875Z,97336.00
2023-04-19T15:57:44.883Z,97338.00
2023-04-19T16:02:47.258Z,97337.00
2023-04-19T16:08:01.008Z,97337.00
2023-04-19T16:13:05.606Z,97332.00
2023-04-19T16:18:06.590Z,97342.00
2023-04-19T16:23:07.898Z,97341.00
2023-04-19T16:28:08.788Z,97347.00
2023-04-19T16:33:10.626Z,97343.00
2023-04-19T16:38:11.493Z,97353.00
2023-04-19T16:43:12.270Z,97347.00
2023-04-19T16:48:13.269Z,97344.00
2023-04-19T16:53:14.116Z,97340.00
2023-04-19T16:58:14.948Z,97340.00
2023-04-19T17:03:15.897Z,97332.00
2023-04-19T17:08:16.980Z,97330.00
2023-04-19T17:13:17.771Z,97335.00
2023-04-19T17:18:18.665Z,97331.00
2023-04-19T17:23:20.416Z,97322.00
2023-04-19T17:28:21.236Z,97333.00
2023-04-19T17:33:22.022Z,97325.00
2023-04-19T17:38:22.915Z,97332.00
2023-04-19T17:43:27.447Z,97335.00
2023-04-19T17:48:28.291Z,97336.00
2023-04-19T17:53:29.112Z,97337.00
2023-04-19T17:58:30.321Z,97344.00
2023-04-19T18:03:31.739Z,97347.00
2023-04-19T18:08:32.925Z,97349.00
2023-04-19T18:13:36.563Z,97350.00
2023-04-19T18:18:37.828Z,97346.00
2023-04-19T18:23:38.889Z,97361.00
2023-04-19T18:28:39.661Z,97362.00
2023-04-19T18:33:40.691Z,97359.00
2023-04-19T18:38:41.611Z,97360.00
2023-04-19T18:48:43.546Z,97375.00
2023-04-19T18:53:45.465Z,97368.00
2023-04-19T18:58:49.447Z,97374.00
2023-04-19T19:04:10.708Z,97379.00
2023-04-19T19:09:25.570Z,97381.00
2023-04-19T19:14:26.784Z,97379.00
2023-04-19T19:19:28.690Z,97382.00
2023-04-19T19:24:29.447Z,97385.00
2023-04-19T19:29:30.630Z,97384.00
2023-04-19T19:34:33.600Z,97396.00
2023-04-19T19:39:39.052Z,97391.00
2023-04-19T19:44:39.899Z,97395.00
2023-04-19T19:49:57.485Z,97391.00
2023-04-19T19:55:14.758Z,97398.00
2023-04-19T20:05:20.914Z,97397.00
2023-04-19T20:10:22.020Z,97399.00
2023-04-19T20:15:22.905Z,97400.00
2023-04-19T20:20:23.792Z,97397.00
2023-04-19T20:25:24.742Z,97396.00
2023-04-19T20:30:25.854Z,97395.00
2023-04-19T20:35:26.761Z,97392.00
2023-04-19T20:40:29.599Z,97390.00
2023-04-19T20:45:30.498Z,97382.00
2023-04-19T20:50:31.336Z,97391.00
2023-04-19T20:55:32.126Z,97389.00
2023-04-19T21:00:32.921Z,97386.00
2023-04-19T21:05:34.332Z,97385.00
2023-04-19T21:10:35.238Z,97389.00
2023-04-19T21:15:36.137Z,97373.00
2023-04-19T21:20:37.208Z,97374.00
2023-04-19T21:25:37.958Z,97376.00
2023-04-19T21:30:40.102Z,97376.00
2023-04-19T21:35:40.885Z,97370.00
2023-04-19T21:40:41.806Z,97368.00
2023-04-19T21:45:42.631Z,97367.00
2023-04-19T21:50:43.448Z,97362.00
2023-04-19T21:55:46.477Z,97358.00
2023-04-19T22:00:48.057Z,97350.00
2023-04-19T22:05:48.852Z,97349.00
2023-04-19T22:10:49.784Z,97350.00
2023-04-19T22:15:51.516Z,97341.00
2023-04-19T22:20:53.136Z,97342.00
2023-04-19T22:25:54.312Z,97341.00
2023-04-19T22:30:55.180Z,97341.00
2023-04-19T22:35:56.019Z,97328.00
2023-04-19T22:40:56.880Z,97323.00
2023-04-19T22:45:57.937Z,97314.00
2023-04-19T22:50:59.695Z,97310.00
2023-04-19T22:56:00.473Z,97304.00
2023-04-19T23:01:02.142Z,97296.00
2023-04-19T23:06:03.752Z,97285.00
2023-04-19T23:11:05.422Z,97280.00
2023-04-19T23:16:10.166Z,97275.00
2023-04-19T23:21:11.274Z,97272.00
2023-04-19T23:26:12.358Z,97256.00
2023-04-19T23:31:13.244Z,97253.00
2023-04-19T23:36:14.199Z,97238.00
2023-04-19T23:41:15.262Z,97243.00
2023-04-19T23:46:16.075Z,97227.00
2023-04-19T23:51:16.861Z,97229.00
2023-04-19T23:56:17.683Z,97216.00
